createdAt,value
2023-02-27T00:01:52.311Z,22.94
2023-02-27T00:04:22.800Z,22.93
2023-02-27T00:06:53.864Z,22.93
2023-02-27T00:09:24.332Z,22.92
2023-02-27T00:11:54.449Z,22.91
2023-02-27T00:14:25.156Z,22.91
2023-02-27T00:16:58.400Z,22.91
2023-02-27T00:19:29.596Z,22.90
2023-02-27T00:21:59.962Z,22.89
2023-02-27T00:24:30.550Z,22.88
2023-02-27T00:27:01.770Z,22.88
2023-02-27T00:29:32.440Z,22.88
2023-02-27T00:32:04.992Z,22.88
2023-02-27T00:34:35.597Z,22.87
2023-02-27T00:37:06.464Z,22.88
2023-02-27T00:39:37.802Z,22.87
2023-02-27T00:42:08.433Z,22.87
2023-02-27T00:44:38.998Z,22.87
2023-02-27T00:47:13.257Z,22.86
2023-02-27T00:49:43.621Z,22.84
2023-02-27T00:52:13.673Z,22.84
2023-02-27T00:54:44.703Z,22.82
2023-02-27T00:57:15.584Z,22.81
2023-02-27T00:59:47.032Z,22.78
2023-02-27T01:02:19.121Z,22.77
2023-02-27T01:04:50.601Z,22.76
2023-02-27T01:07:21.019Z,22.75
2023-02-27T01:09:51.226Z,22.75
2023-02-27T01:12:21.689Z,22.75
2023-02-27T01:14:52.035Z,22.75
2023-02-27T01:17:24.051Z,22.74
2023-02-27T01:19:54.946Z,22.75
2023-02-27T01:22:25.486Z,22.75
2023-02-27T01:24:55.999Z,22.75
2023-02-27T01:27:26.529Z,22.76
2023-02-27T01:29:56.936Z,22.77
2023-02-27T01:32:29.004Z,22.78
2023-02-27T01:34:59.084Z,22.78
2023-02-27T01:37:29.251Z,22.79
2023-02-27T01:39:59.050Z,22.79
2023-02-27T01:42:31.863Z,22.81
2023-02-27T01:45:31.618Z,22.80
2023-02-27T01:48:14.658Z,22.80
2023-02-27T01:50:53.076Z,22.79
2023-02-27T01:53:26.524Z,22.80
2023-02-27T01:56:01.013Z,22.80
2023-02-27T01:58:31.659Z,22.81
2023-02-27T02:01:02.537Z,22.83
2023-02-27T02:03:43.135Z,22.83
2023-02-27T02:06:14.909Z,22.84
2023-02-27T02:08:50.481Z,22.84
2023-02-27T02:11:23.521Z,22.85
2023-02-27T02:14:00.098Z,22.84
2023-02-27T02:17:02.795Z,22.84
2023-02-27T02:20:21.194Z,22.84
2023-02-27T02:23:45.756Z,22.82
2023-02-27T02:26:46.910Z,22.83
2023-02-27T02:30:20.488Z,22.81
2023-02-27T02:34:08.379Z,22.80
2023-02-27T02:37:23.157Z,22.80
2023-02-27T02:40:18.586Z,22.81
2023-02-27T02:42:59.584Z,22.83
2023-02-27T02:45:36.203Z,22.84
2023-02-27T02:48:20.930Z,22.86
2023-02-27T02:51:00.268Z,22.87
2023-02-27T02:53:44.089Z,22.86
2023-02-27T02:56:27.896Z,22.85
2023-02-27T02:59:08.140Z,22.86
2023-02-27T03:01:46.281Z,22.85
2023-02-27T03:04:26.551Z,22.85
2023-02-27T03:07:06.640Z,22.85
2023-02-27T03:09:43.817Z,22.85
2023-02-27T03:12:23.783Z,22.85
2023-02-27T03:15:05.468Z,22.85
2023-02-27T03:17:45.687Z,22.86
2023-02-27T03:20:25.096Z,22.86
2023-02-27T03:23:02.459Z,22.86
2023-02-27T03:25:35.949Z,22.85
2023-02-27T03:28:14.189Z,22.85
2023-02-27T03:30:56.355Z,22.84
2023-02-27T03:33:32.812Z,22.82
2023-02-27T03:36:14.222Z,22.82
2023-02-27T03:38:54.732Z,22.82
2023-02-27T03:41:34.417Z,22.84
2023-02-27T03:44:13.970Z,22.86
2023-02-27T03:46:44.919Z,22.87
2023-02-27T03:49:16.108Z,22.89
2023-02-27T03:51:48.057Z,22.92
2023-02-27T03:54:24.227Z,22.94
2023-02-27T03:57:01.937Z,22.95
2023-02-27T03:59:35.980Z,22.98
2023-02-27T04:02:06.888Z,23.00
2023-02-27T04:04:38.331Z,23.01
2023-02-27T04:07:23.167Z,23.03
2023-02-27T04:10:34.719Z,23.03
2023-02-27T04:13:41.788Z,23.02
2023-02-27T04:17:04.220Z,23.01
2023-02-27T04:20:11.373Z,23.00
2023-02-27T04:22:49.216Z,23.00
2023-02-27T04:25:45.217Z,23.01
2023-02-27T04:28:20.758Z,23.02
2023-02-27T04:31:04.790Z,23.04
2023-02-27T04:33:50.763Z,23.05
2023-02-27T04:36:33.715Z,23.06
2023-02-27T04:39:10.684Z,23.06
2023-02-27T04:41:47.219Z,23.08
2023-02-27T04:44:20.625Z,23.08
2023-02-27T04:46:53.936Z,23.10
2023-02-27T04:49:31.324Z,23.11
2023-02-27T04:52:10.854Z,23.13
2023-02-27T04:54:48.402Z,23.15
2023-02-27T04:57:25.240Z,23.17
2023-02-27T05:00:00.196Z,23.19
2023-02-27T05:02:36.866Z,23.22
2023-02-27T05:05:17.354Z,23.26
2023-02-27T05:07:54.577Z,23.30
2023-02-27T05:10:35.307Z,23.35
2023-02-27T05:13:13.041Z,23.40
2023-02-27T05:15:51.279Z,23.47
2023-02-27T05:18:24.010Z,23.52
2023-02-27T05:21:18.045Z,23.60
2023-02-27T05:24:05.340Z,23.68
2023-02-27T05:26:55.310Z,23.76
2023-02-27T05:29:37.959Z,23.85
2023-02-27T05:32:29.188Z,23.95
2023-02-27T05:35:17.728Z,24.03
2023-02-27T05:37:57.934Z,24.13
2023-02-27T05:40:37.435Z,24.21
2023-02-27T05:43:13.359Z,24.30
2023-02-27T05:45:48.972Z,24.37
2023-02-27T05:48:27.052Z,24.44
2023-02-27T05:50:59.768Z,24.49
2023-02-27T05:53:43.512Z,24.57
2023-02-27T05:56:19.970Z,24.62
2023-02-27T05:58:59.221Z,24.68
2023-02-27T06:01:29.735Z,24.75
2023-02-27T06:03:59.733Z,24.82
2023-02-27T06:06:33.874Z,24.92
2023-02-27T06:09:05.680Z,25.01
2023-02-27T06:11:36.508Z,25.11
2023-02-27T06:14:07.114Z,25.21
2023-02-27T06:16:39.584Z,25.32
2023-02-27T06:19:09.652Z,25.41
2023-02-27T06:21:40.230Z,25.49
2023-02-27T06:24:12.946Z,25.57
2023-02-27T06:26:43.419Z,25.65
2023-02-27T06:29:13.217Z,25.74
2023-02-27T06:31:43.642Z,25.84
2023-02-27T06:34:13.998Z,25.94
2023-02-27T06:36:44.466Z,26.04
2023-02-27T06:39:16.440Z,26.14
2023-02-27T06:41:46.651Z,26.25
2023-02-27T06:44:19.397Z,26.35
2023-02-27T06:46:49.532Z,26.45
2023-02-27T06:49:20.525Z,26.55
2023-02-27T06:51:50.864Z,26.64
2023-02-27T06:54:23.622Z,26.72
2023-02-27T06:56:53.712Z,26.79
2023-02-27T06:59:24.442Z,26.88
2023-02-27T07:01:54.941Z,26.97
2023-02-27T07:04:25.487Z,27.06
2023-02-27T07:07:34.898Z,27.15
2023-02-27T07:09:47.860Z,27.24
2023-02-27T07:12:18.616Z,27.33
2023-02-27T07:14:48.553Z,27.44
2023-02-27T07:17:20.336Z,27.53
2023-02-27T07:19:50.695Z,27.62
2023-02-27T07:22:21.146Z,27.71
2023-02-27T07:24:54.068Z,27.78
2023-02-27T07:27:23.897Z,27.84
2023-02-27T07:29:54.874Z,27.91
2023-02-27T07:32:25.072Z,27.98
2023-02-27T07:34:55.792Z,28.03
2023-02-27T07:37:27.925Z,28.08
2023-02-27T07:40:00.501Z,28.14
2023-02-27T07:42:30.568Z,28.19
2023-02-27T07:45:01.050Z,28.24
2023-02-27T07:47:32.190Z,28.29
2023-02-27T07:50:03.357Z,28.33
2023-02-27T07:52:34.688Z,28.37
2023-02-27T07:55:06.901Z,28.40
2023-02-27T07:57:37.204Z,28.43
2023-02-27T08:00:10.782Z,28.46
2023-02-27T08:02:41.677Z,28.50
2023-02-27T08:05:12.183Z,28.54
2023-02-27T08:07:42.212Z,28.60
2023-02-27T08:10:17.146Z,28.64
2023-02-27T08:12:47.600Z,28.68
2023-02-27T08:15:17.976Z,28.73
2023-02-27T08:17:49.491Z,28.77
2023-02-27T08:20:22.952Z,28.82
2023-02-27T08:22:52.863Z,28.88
2023-02-27T08:25:24.739Z,28.92
2023-02-27T08:27:55.333Z,28.96
2023-02-27T08:30:25.861Z,29.01
2023-02-27T08:32:56.633Z,29.06
2023-02-27T08:35:27.183Z,29.11
2023-02-27T08:37:57.372Z,29.15
2023-02-27T08:40:29.399Z,29.21
2023-02-27T08:42:59.796Z,29.25
2023-02-27T08:45:30.444Z,29.27
2023-02-27T08:48:00.966Z,29.32
2023-02-27T08:50:30.892Z,29.37
2023-02-27T08:53:01.216Z,29.40
2023-02-27T08:55:33.225Z,29.45
2023-02-27T08:58:03.632Z,29.47
2023-02-27T09:00:34.954Z,29.49
2023-02-27T09:03:05.514Z,29.49
2023-02-27T09:05:37.977Z,29.51
2023-02-27T09:08:08.396Z,29.51
2023-02-27T09:10:40.835Z,29.52
2023-02-27T09:13:10.840Z,29.51
2023-02-27T09:15:40.922Z,29.52
2023-02-27T09:18:11.497Z,29.49
2023-02-27T09:20:42.930Z,29.48
2023-02-27T09:23:13.523Z,29.46
2023-02-27T09:25:46.080Z,29.44
2023-02-27T09:28:16.242Z,29.42
2023-02-27T09:30:46.542Z,29.40
2023-02-27T09:33:17.327Z,29.38
2023-02-27T09:35:48.108Z,29.38
2023-02-27T09:38:18.590Z,29.38
2023-02-27T09:40:53.812Z,29.39
2023-02-27T09:43:32.260Z,29.39
2023-02-27T09:46:05.486Z,29.38
2023-02-27T09:48:42.033Z,29.38
2023-02-27T09:51:12.690Z,29.38
2023-02-27T09:53:47.856Z,29.39
2023-02-27T09:56:28.678Z,29.37
2023-02-27T09:59:07.416Z,29.36
2023-02-27T10:01:46.078Z,29.34
2023-02-27T10:04:33.950Z,29.31
2023-02-27T10:07:18.597Z,29.28
2023-02-27T10:10:05.428Z,29.24
2023-02-27T10:12:57.485Z,29.19
2023-02-27T10:15:33.383Z,29.15
2023-02-27T10:18:25.561Z,29.12
2023-02-27T10:21:03.497Z,29.07
2023-02-27T10:23:43.766Z,29.04
2023-02-27T10:26:23.140Z,28.99
2023-02-27T10:28:56.085Z,28.94
2023-02-27T10:31:32.710Z,28.90
2023-02-27T10:34:04.972Z,28.85
2023-02-27T10:36:37.084Z,28.81
2023-02-27T10:39:14.217Z,28.76
2023-02-27T10:41:47.399Z,28.71
2023-02-27T10:44:20.959Z,28.65
2023-02-27T10:46:52.333Z,28.62
2023-02-27T10:49:24.676Z,28.57
2023-02-27T10:52:11.949Z,28.54
2023-02-27T10:54:43.243Z,28.48
2023-02-27T10:57:31.307Z,28.44
2023-02-27T11:00:08.570Z,28.40
2023-02-27T11:02:43.417Z,28.36
2023-02-27T11:05:27.766Z,28.32
2023-02-27T11:08:00.368Z,28.29
2023-02-27T11:10:31.721Z,28.25
2023-02-27T11:13:06.046Z,28.23
2023-02-27T11:15:39.754Z,28.20
2023-02-27T11:18:29.777Z,28.16
2023-02-27T11:21:21.043Z,28.13
2023-02-27T11:24:01.214Z,28.10
2023-02-27T11:26:36.709Z,28.07
2023-02-27T11:29:18.125Z,28.06
2023-02-27T11:31:56.579Z,28.03
2023-02-27T11:34:40.319Z,28.00
2023-02-27T11:37:29.407Z,27.98
2023-02-27T11:40:17.336Z,27.94
2023-02-27T11:42:52.430Z,27.91
2023-02-27T11:46:12.168Z,27.88
2023-02-27T11:48:32.388Z,27.85
2023-02-27T11:51:33.240Z,27.81
2023-02-27T11:54:23.888Z,27.79
2023-02-27T11:56:58.349Z,27.76
2023-02-27T11:59:44.324Z,27.74
2023-02-27T12:02:24.846Z,27.72
2023-02-27T12:05:02.332Z,27.71
2023-02-27T12:07:44.013Z,27.69
2023-02-27T12:10:21.872Z,27.66
2023-02-27T12:12:58.511Z,27.65
2023-02-27T12:15:39.173Z,27.64
2023-02-27T12:18:20.206Z,27.62
2023-02-27T12:21:00.110Z,27.59
2023-02-27T12:23:39.010Z,27.60
2023-02-27T12:26:17.000Z,27.57
2023-02-27T12:29:00.505Z,27.56
2023-02-27T12:31:52.291Z,27.54
2023-02-27T12:34:29.717Z,27.51
2023-02-27T12:37:07.136Z,27.49
2023-02-27T12:39:37.277Z,27.47
2023-02-27T12:43:06.235Z,27.42
2023-02-27T12:46:15.565Z,27.38
2023-02-27T12:49:11.357Z,27.36
2023-02-27T12:51:56.641Z,27.35
2023-02-27T12:54:46.723Z,27.34
2023-02-27T12:57:38.336Z,27.33
2023-02-27T13:00:18.112Z,27.32
2023-02-27T13:03:08.085Z,27.31
2023-02-27T13:05:45.635Z,27.29
2023-02-27T13:08:58.656Z,27.27
2023-02-27T13:11:49.236Z,27.24
2023-02-27T13:14:35.984Z,27.23
2023-02-27T13:17:18.031Z,27.22
2023-02-27T13:19:54.900Z,27.22
2023-02-27T13:22:39.725Z,27.21
2023-02-27T13:25:17.396Z,27.19
2023-02-27T13:27:55.113Z,27.18
2023-02-27T13:30:32.057Z,27.18
2023-02-27T13:33:19.206Z,27.16
2023-02-27T13:36:05.881Z,27.16
2023-02-27T13:38:45.978Z,27.16
2023-02-27T13:41:41.930Z,27.16
2023-02-27T13:44:43.272Z,27.14
2023-02-27T13:48:01.396Z,27.12
2023-02-27T13:50:55.006Z,27.10
2023-02-27T13:53:25.553Z,27.10
2023-02-27T13:56:23.659Z,27.12
2023-02-27T13:58:57.569Z,27.10
2023-02-27T14:01:31.929Z,27.09
2023-02-27T14:04:09.013Z,27.10
2023-02-27T14:06:49.233Z,27.09
2023-02-27T14:09:25.254Z,27.09
2023-02-27T14:12:02.773Z,27.08
2023-02-27T14:14:50.800Z,27.09
2023-02-27T14:17:45.564Z,27.07
2023-02-27T14:20:38.439Z,27.07
2023-02-27T14:23:27.854Z,27.07
2023-02-27T14:26:17.810Z,27.06
2023-02-27T14:28:56.336Z,27.06
2023-02-27T14:31:32.943Z,27.06
2023-02-27T14:34:07.187Z,27.06
2023-02-27T14:36:45.200Z,27.06
2023-02-27T14:39:26.560Z,27.06
2023-02-27T14:42:19.284Z,27.05
2023-02-27T14:44:52.218Z,27.04
2023-02-27T14:47:33.196Z,27.03
2023-02-27T14:50:08.489Z,27.04
2023-02-27T14:52:45.993Z,27.02
2023-02-27T14:55:28.270Z,27.01
2023-02-27T14:58:02.652Z,26.99
2023-02-27T15:00:38.445Z,26.99
2023-02-27T15:03:22.687Z,26.99
2023-02-27T15:06:01.512Z,26.97
2023-02-27T15:08:35.097Z,26.96
2023-02-27T15:11:06.931Z,26.94
2023-02-27T15:13:42.454Z,26.94
2023-02-27T15:16:31.252Z,26.93
2023-02-27T15:19:14.017Z,26.91
2023-02-27T15:21:50.353Z,26.90
2023-02-27T15:24:35.290Z,26.89
2023-02-27T15:27:18.906Z,26.88
2023-02-27T15:29:53.981Z,26.85
2023-02-27T15:32:31.213Z,26.85
2023-02-27T15:35:05.249Z,26.83
2023-02-27T15:37:38.031Z,26.83
2023-02-27T15:40:15.791Z,26.81
2023-02-27T15:42:47.654Z,26.80
2023-02-27T15:45:24.170Z,26.79
2023-02-27T15:47:55.437Z,26.77
2023-02-27T15:50:31.051Z,26.75
2023-02-27T15:53:12.402Z,26.74
2023-02-27T15:55:49.549Z,26.72
2023-02-27T15:58:26.813Z,26.71
2023-02-27T16:01:04.262Z,26.70
2023-02-27T16:03:40.452Z,26.68
2023-02-27T16:06:18.527Z,26.67
2023-02-27T16:08:56.354Z,26.66
2023-02-27T16:11:30.027Z,26.64
2023-02-27T16:14:01.122Z,26.63
2023-02-27T16:16:36.543Z,26.62
2023-02-27T16:19:27.239Z,26.60
2023-02-27T16:22:09.461Z,26.58
2023-02-27T16:24:41.888Z,26.57
2023-02-27T16:27:22.466Z,26.56
2023-02-27T16:29:54.020Z,26.54
2023-02-27T16:32:31.741Z,26.54
2023-02-27T16:35:09.434Z,26.52
2023-02-27T16:37:43.698Z,26.50
2023-02-27T16:40:21.149Z,26.51
2023-02-27T16:42:52.849Z,26.49
2023-02-27T16:45:26.764Z,26.48
2023-02-27T16:47:59.034Z,26.46
2023-02-27T16:50:33.854Z,26.46
2023-02-27T16:53:04.698Z,26.44
2023-02-27T16:55:42.667Z,26.44
2023-02-27T16:58:17.865Z,26.43
2023-02-27T17:00:47.639Z,26.43
2023-02-27T17:03:18.533Z,26.42
2023-02-27T17:05:49.608Z,26.42
2023-02-27T17:08:23.203Z,26.41
2023-02-27T17:10:55.356Z,26.40
2023-02-27T17:13:26.551Z,26.40
2023-02-27T17:16:07.639Z,26.39
2023-02-27T17:18:39.922Z,26.38
2023-02-27T17:21:10.840Z,26.38
2023-02-27T17:23:41.251Z,26.37
2023-02-27T17:26:14.243Z,26.37
2023-02-27T17:28:44.540Z,26.36
2023-02-27T17:31:23.409Z,26.36
2023-02-27T17:33:54.580Z,26.35
2023-02-27T17:36:27.114Z,26.35
2023-02-27T17:38:58.574Z,26.33
2023-02-27T17:41:32.740Z,26.33
2023-02-27T17:44:03.717Z,26.33
2023-02-27T17:46:34.004Z,26.32
2023-02-27T17:49:05.036Z,26.31
2023-02-27T17:51:36.652Z,26.32
2023-02-27T17:54:09.434Z,26.32
2023-02-27T17:56:41.548Z,26.32
2023-02-27T17:59:12.129Z,26.30
2023-02-27T18:01:42.748Z,26.30
2023-02-27T18:04:13.324Z,26.29
2023-02-27T18:06:44.501Z,26.28
2023-02-27T18:09:14.467Z,26.28
2023-02-27T18:11:46.490Z,26.27
2023-02-27T18:14:17.538Z,26.27
2023-02-27T18:16:48.017Z,26.26
2023-02-27T18:19:19.064Z,26.26
2023-02-27T18:21:49.231Z,26.25
2023-02-27T18:24:20.257Z,26.25
2023-02-27T18:26:52.841Z,26.25
2023-02-27T18:29:23.765Z,26.25
2023-02-27T18:31:55.407Z,26.24
2023-02-27T18:34:30.815Z,26.24
2023-02-27T18:37:00.765Z,26.22
2023-02-27T18:39:31.473Z,26.22
2023-02-27T18:42:06.749Z,26.21
2023-02-27T18:44:39.455Z,26.19
2023-02-27T18:47:10.256Z,26.17
2023-02-27T18:49:41.032Z,26.16
2023-02-27T18:52:12.238Z,26.15
2023-02-27T18:54:43.727Z,26.15
2023-02-27T18:57:15.806Z,26.13
2023-02-27T18:59:47.869Z,26.11
2023-02-27T19:02:22.512Z,26.11
2023-02-27T19:04:53.286Z,26.08
2023-02-27T19:07:25.981Z,26.07
2023-02-27T19:09:57.904Z,26.07
2023-02-27T19:12:32.047Z,26.05
2023-02-27T19:15:03.792Z,26.05
2023-02-27T19:17:34.397Z,26.03
2023-02-27T19:20:06.808Z,26.01
2023-02-27T19:22:37.085Z,26.01
2023-02-27T19:25:09.127Z,25.99
2023-02-27T19:27:45.228Z,25.98
2023-02-27T19:30:17.769Z,25.97
2023-02-27T19:32:47.573Z,25.96
2023-02-27T19:35:18.278Z,25.94
2023-02-27T19:37:54.949Z,25.93
2023-02-27T19:40:25.560Z,25.91
2023-02-27T19:42:58.065Z,25.91
2023-02-27T19:45:28.764Z,25.89
2023-02-27T19:47:59.427Z,25.88
2023-02-27T19:50:30.697Z,25.86
2023-02-27T19:53:01.868Z,25.86
2023-02-27T19:55:32.612Z,25.86
2023-02-27T19:58:21.029Z,25.84
2023-02-27T20:00:51.814Z,25.82
2023-02-27T20:03:24.996Z,25.81
2023-02-27T20:05:56.425Z,25.80
2023-02-27T20:08:27.107Z,25.80
2023-02-27T20:10:59.736Z,25.79
2023-02-27T20:13:33.150Z,25.79
2023-02-27T20:16:06.195Z,25.77
2023-02-27T20:18:38.945Z,25.76
2023-02-27T20:21:15.541Z,25.76
2023-02-27T20:23:48.455Z,25.75
2023-02-27T20:26:26.971Z,25.74
2023-02-27T20:29:04.229Z,25.73
2023-02-27T20:31:39.555Z,25.72
2023-02-27T20:34:11.817Z,25.71
2023-02-27T20:36:43.711Z,25.70
2023-02-27T20:39:14.754Z,25.69
2023-02-27T20:41:46.186Z,25.68
2023-02-27T20:44:20.071Z,25.68
2023-02-27T20:46:50.745Z,25.66
2023-02-27T20:49:22.455Z,25.66
2023-02-27T20:51:53.295Z,25.66
2023-02-27T20:54:24.070Z,25.66
2023-02-27T20:56:54.996Z,25.65
2023-02-27T20:59:28.039Z,25.64
2023-02-27T21:02:00.245Z,25.64
2023-02-27T21:04:43.025Z,25.63
2023-02-27T21:07:16.259Z,25.62
2023-02-27T21:09:47.514Z,25.61
2023-02-27T21:12:18.269Z,25.61
2023-02-27T21:14:50.878Z,25.61
2023-02-27T21:17:21.351Z,25.60
2023-02-27T21:19:52.334Z,25.59
2023-02-27T21:22:24.395Z,25.58
2023-02-27T21:24:55.386Z,25.59
2023-02-27T21:27:26.272Z,25.57
2023-02-27T21:29:58.741Z,25.57
2023-02-27T21:32:29.433Z,25.56
2023-02-27T21:35:00.154Z,25.55
2023-02-27T21:37:30.554Z,25.53
2023-02-27T21:40:04.527Z,25.53
2023-02-27T21:42:35.297Z,25.52
2023-02-27T21:45:10.049Z,25.51
2023-02-27T21:47:40.500Z,25.50
2023-02-27T21:50:18.517Z,25.49
2023-02-27T21:52:48.909Z,25.48
2023-02-27T21:55:19.478Z,25.47
2023-02-27T21:57:50.464Z,25.45
2023-02-27T22:00:28.029Z,25.45
2023-02-27T22:02:59.697Z,25.42
2023-02-27T22:05:31.386Z,25.41
2023-02-27T22:08:03.620Z,25.40
2023-02-27T22:10:46.256Z,25.39
2023-02-27T22:13:17.337Z,25.37
2023-02-27T22:15:49.511Z,25.36
2023-02-27T22:18:20.251Z,25.34
2023-02-27T22:20:50.932Z,25.33
2023-02-27T22:23:21.162Z,25.33
2023-02-27T22:26:19.072Z,25.30
2023-02-27T22:28:52.238Z,25.29
2023-02-27T22:31:28.276Z,25.29
2023-02-27T22:34:04.210Z,25.27
2023-02-27T22:36:38.940Z,25.26
2023-02-27T22:39:09.908Z,25.24
2023-02-27T22:41:43.600Z,25.24
2023-02-27T22:44:18.714Z,25.24
2023-02-27T22:46:53.644Z,25.22
2023-02-27T22:49:26.962Z,25.20
2023-02-27T22:51:57.988Z,25.20
2023-02-27T22:54:28.376Z,25.18
2023-02-27T22:56:58.548Z,25.16
2023-02-27T22:59:29.739Z,25.15
2023-02-27T23:02:01.254Z,25.13
2023-02-27T23:04:42.849Z,25.12
2023-02-27T23:07:14.258Z,25.10
2023-02-27T23:09:44.546Z,25.08
2023-02-27T23:12:15.729Z,25.08
2023-02-27T23:14:47.760Z,25.06
2023-02-27T23:17:20.788Z,25.05
2023-02-27T23:19:51.059Z,25.04
2023-02-27T23:22:21.914Z,25.02
2023-02-27T23:24:52.958Z,25.00
2023-02-27T23:27:26.149Z,24.99
2023-02-27T23:29:57.274Z,24.98
2023-02-27T23:32:29.862Z,24.97
2023-02-27T23:35:00.385Z,24.96
2023-02-27T23:37:30.411Z,24.95
2023-02-27T23:40:02.405Z,24.94
2023-02-27T23:42:33.786Z,24.93
2023-02-27T23:45:06.488Z,24.91
2023-02-27T23:47:45.044Z,24.91
2023-02-27T23:50:15.813Z,24.88
2023-02-27T23:52:45.624Z,24.85
2023-02-27T23:55:16.157Z,24.85
2023-02-27T23:57:47.794Z,24.84
